createdAt,value
2019-01-14T00:00:39.321Z,983.31
2019-01-14T00:01:48.762Z,983.42
2019-01-14T00:02:58.709Z,983.39
2019-01-14T00:04:08.659Z,983.89
2019-01-14T00:05:18.345Z,983.8
2019-01-14T00:06:27.531Z,983.43
2019-01-14T00:07:37.484Z,983.92
2019-01-14T00:08:47.165Z,983.32
2019-01-14T00:09:57.111Z,983.59
2019-01-14T00:11:07.036Z,983.62
2019-01-14T00:12:16.714Z,983.63
2019-01-14T00:13:26.666Z,984.04
2019-01-14T00:14:36.621Z,983.46
2019-01-14T00:15:46.310Z,983.75
2019-01-14T00:16:56.014Z,983.45
2019-01-14T00:18:05.732Z,983.79
2019-01-14T00:19:15.659Z,983.73
2019-01-14T00:20:25.597Z,983.76
2019-01-14T00:21:35.552Z,983.53
2019-01-14T00:22:45.516Z,983.95
2019-01-14T00:23:55.443Z,983.66
2019-01-14T00:25:05.384Z,983.82
2019-01-14T00:26:14.849Z,983.95
2019-01-14T00:27:24.783Z,984.25
2019-01-14T00:28:34.713Z,984.18
2019-01-14T00:29:44.400Z,984.17
2019-01-14T00:30:54.347Z,984.1
2019-01-14T00:32:04.299Z,984.06
2019-01-14T00:33:14.239Z,984.35
2019-01-14T00:34:24.203Z,984.53
2019-01-14T00:35:34.144Z,984.68
2019-01-14T00:36:44.114Z,984.77
2019-01-14T00:37:54.056Z,984.28
2019-01-14T00:39:03.994Z,984.25
2019-01-14T00:40:13.935Z,984.32
2019-01-14T00:41:23.872Z,984.19
2019-01-14T00:42:33.809Z,984.5
2019-01-14T00:43:43.484Z,984.6
2019-01-14T00:44:53.209Z,984.33
2019-01-14T00:46:03.159Z,984.33
2019-01-14T00:47:13.098Z,984.44
2019-01-14T00:48:23.033Z,984.37
2019-01-14T00:49:32.981Z,984.35
2019-01-14T00:50:42.965Z,984.53
2019-01-14T00:51:52.919Z,984.6
2019-01-14T00:53:02.631Z,984.42
2019-01-14T00:54:12.576Z,984.57
2019-01-14T00:55:22.513Z,984.72
2019-01-14T00:56:32.215Z,984.6
2019-01-14T00:57:42.254Z,984.68
2019-01-14T00:58:52.177Z,984.72
2019-01-14T01:00:01.876Z,984.87
2019-01-14T01:01:11.830Z,984.58
2019-01-14T01:02:21.783Z,984.71
2019-01-14T01:03:31.463Z,984.83
2019-01-14T01:04:41.422Z,984.86
2019-01-14T01:05:51.360Z,984.67
2019-01-14T01:07:01.038Z,984.78
2019-01-14T01:08:10.733Z,984.79
2019-01-14T01:09:20.689Z,984.83
2019-01-14T01:10:30.619Z,985.14
2019-01-14T01:11:40.549Z,985.62
2019-01-14T01:12:50.225Z,984.94
2019-01-14T01:13:59.664Z,985.24
2019-01-14T01:15:09.611Z,984.97
2019-01-14T01:16:19.552Z,985.12
2019-01-14T01:17:29.232Z,985.26
2019-01-14T01:18:38.921Z,985.04
2019-01-14T01:19:48.865Z,985.39
2019-01-14T01:20:58.796Z,985.31
2019-01-14T01:22:08.722Z,985.23
2019-01-14T01:23:18.411Z,985.32
2019-01-14T01:24:28.106Z,985.52
2019-01-14T01:25:38.041Z,985.25
2019-01-14T01:26:47.984Z,985.35
2019-01-14T01:27:57.681Z,985.38
2019-01-14T01:29:07.605Z,985.47
2019-01-14T01:30:16.809Z,985.57
2019-01-14T01:31:26.750Z,985.37
2019-01-14T01:32:36.444Z,985.54
2019-01-14T01:33:46.393Z,985.41
2019-01-14T01:34:56.089Z,985.59
2019-01-14T01:36:05.771Z,985.48
2019-01-14T01:37:15.471Z,985.61
2019-01-14T01:38:25.434Z,985.37
2019-01-14T01:39:35.369Z,985.22
2019-01-14T01:40:45.314Z,985.65
2019-01-14T01:41:55.258Z,985.95
2019-01-14T01:43:05.190Z,985.63
2019-01-14T01:44:15.120Z,985.66
2019-01-14T01:45:25.061Z,985.83
2019-01-14T01:46:35.005Z,985.82
2019-01-14T01:47:44.688Z,985.71
2019-01-14T01:48:54.375Z,985.81
2019-01-14T01:50:04.063Z,985.75
2019-01-14T01:51:14.000Z,985.95
2019-01-14T01:52:23.929Z,985.86
2019-01-14T01:53:35.084Z,985.96
2019-01-14T01:54:45.025Z,986.07
2019-01-14T01:55:54.707Z,986.14
2019-01-14T01:57:04.388Z,986.3
2019-01-14T01:58:15.521Z,986.19
2019-01-14T01:59:25.216Z,986.43
2019-01-14T02:00:34.661Z,986.41
2019-01-14T02:01:44.556Z,986.45
2019-01-14T02:02:54.637Z,986.43
2019-01-14T02:04:04.333Z,986.3
2019-01-14T02:05:14.265Z,986.67
2019-01-14T02:06:23.950Z,986.45
2019-01-14T02:07:39.718Z,986.5
2019-01-14T02:08:49.668Z,986.47
2019-01-14T02:09:59.700Z,986.75
2019-01-14T02:11:09.645Z,986.67
2019-01-14T02:12:19.579Z,986.68
2019-01-14T02:13:29.274Z,986.55
2019-01-14T02:14:39.193Z,986.64
2019-01-14T02:15:48.867Z,986.82
2019-01-14T02:16:58.797Z,986.56
2019-01-14T02:18:08.487Z,986.72
2019-01-14T02:19:18.426Z,986.69
2019-01-14T02:20:28.350Z,986.57
2019-01-14T02:21:38.043Z,987
2019-01-14T02:22:47.997Z,986.7
2019-01-14T02:23:58.878Z,986.8
2019-01-14T02:25:08.813Z,986.85
2019-01-14T02:26:18.493Z,986.86
2019-01-14T02:27:28.179Z,986.96
2019-01-14T02:28:38.126Z,986.97
2019-01-14T02:29:48.068Z,986.87
2019-01-14T02:30:57.754Z,986.84
2019-01-14T02:32:07.439Z,987.18
2019-01-14T02:33:17.127Z,986.97
2019-01-14T02:34:26.810Z,987.02
2019-01-14T02:35:36.260Z,987.04
2019-01-14T02:36:48.492Z,987.23
2019-01-14T02:37:58.374Z,987.22
2019-01-14T02:39:07.817Z,987.07
2019-01-14T02:40:17.512Z,987.03
2019-01-14T02:41:26.963Z,987.16
2019-01-14T02:42:36.664Z,986.98
2019-01-14T02:43:46.605Z,987.6
2019-01-14T02:44:56.576Z,987.07
2019-01-14T02:46:06.516Z,987.12
2019-01-14T02:47:16.208Z,987.21
2019-01-14T02:48:25.899Z,987.32
2019-01-14T02:49:35.834Z,987.29
2019-01-14T02:50:45.812Z,987.27
2019-01-14T02:51:55.816Z,987.24
2019-01-14T02:53:05.763Z,987.49
2019-01-14T02:54:15.223Z,987.51
2019-01-14T02:55:24.922Z,987.38
2019-01-14T02:56:34.719Z,987.48
2019-01-14T02:57:44.668Z,987.67
2019-01-14T02:58:54.350Z,987.65
2019-01-14T03:00:04.300Z,987.63
2019-01-14T03:01:14.227Z,987.67
2019-01-14T03:02:23.668Z,987.67
2019-01-14T03:03:33.367Z,987.77
2019-01-14T03:04:43.302Z,987.73
2019-01-14T03:05:53.248Z,988.15
2019-01-14T03:07:03.192Z,987.92
2019-01-14T03:08:12.895Z,987.73
2019-01-14T03:09:22.853Z,987.67
2019-01-14T03:10:32.526Z,988.07
2019-01-14T03:11:42.248Z,987.88
2019-01-14T03:12:51.954Z,987.95
2019-01-14T03:14:01.637Z,988
2019-01-14T03:15:11.592Z,988.13
2019-01-14T03:16:21.543Z,988.19
2019-01-14T03:17:30.986Z,988.07
2019-01-14T03:18:40.943Z,988.54
2019-01-14T03:19:50.900Z,988.53
2019-01-14T03:21:00.833Z,988.07
2019-01-14T03:22:10.550Z,988.44
2019-01-14T03:23:20.531Z,988.38
2019-01-14T03:24:30.473Z,988.43
2019-01-14T03:25:40.156Z,988.34
2019-01-14T03:26:58.478Z,988.3
2019-01-14T03:28:08.172Z,988.03
2019-01-14T03:29:18.120Z,988.46
2019-01-14T03:30:27.811Z,988.55
2019-01-14T03:31:37.759Z,988.58
2019-01-14T03:32:47.475Z,988.98
2019-01-14T03:33:57.518Z,988.4
2019-01-14T03:35:07.475Z,988.75
2019-01-14T03:36:16.671Z,988.43
2019-01-14T03:37:26.622Z,988.69
2019-01-14T03:38:36.313Z,988.74
2019-01-14T03:39:46.267Z,988.78
2019-01-14T03:40:56.230Z,988.78
2019-01-14T03:42:06.166Z,989.12
2019-01-14T03:43:15.878Z,989.08
2019-01-14T03:44:25.840Z,988.77
2019-01-14T03:45:35.794Z,988.79
2019-01-14T03:46:45.487Z,988.88
2019-01-14T03:47:55.428Z,988.92
2019-01-14T03:49:05.357Z,989.18
2019-01-14T03:50:15.305Z,989.12
2019-01-14T03:51:25.325Z,988.98
2019-01-14T03:52:35.277Z,988.9
2019-01-14T03:53:45.217Z,989.3
2019-01-14T03:54:54.917Z,988.98
2019-01-14T03:56:04.694Z,988.65
2019-01-14T03:57:14.665Z,989.01
2019-01-14T03:58:24.360Z,989.27
2019-01-14T03:59:34.334Z,989.05
2019-01-14T04:00:44.279Z,989.08
2019-01-14T04:01:53.987Z,989.17
2019-01-14T04:03:03.951Z,989.39
2019-01-14T04:04:13.913Z,989.13
2019-01-14T04:05:23.596Z,989.31
2019-01-14T04:06:33.273Z,989.25
2019-01-14T04:07:43.207Z,989.31
2019-01-14T04:08:52.904Z,989.36
2019-01-14T04:10:02.599Z,989.57
2019-01-14T04:11:12.557Z,989.35
2019-01-14T04:12:22.498Z,989.3
2019-01-14T04:13:32.198Z,989.39
2019-01-14T04:14:41.628Z,989.31
2019-01-14T04:15:51.308Z,989.43
2019-01-14T04:17:01.248Z,989.53
2019-01-14T04:18:11.200Z,989.64
2019-01-14T04:19:21.137Z,989.58
2019-01-14T04:20:30.892Z,989.75
2019-01-14T04:21:40.582Z,989.6
2019-01-14T04:22:50.259Z,989.84
2019-01-14T04:24:01.936Z,989.69
2019-01-14T04:25:11.921Z,989.58
2019-01-14T04:26:21.636Z,989.61
2019-01-14T04:27:31.574Z,989.68
2019-01-14T04:28:41.006Z,989.74
2019-01-14T04:29:50.985Z,989.8
2019-01-14T04:31:00.689Z,989.88
2019-01-14T04:32:10.632Z,989.74
2019-01-14T04:33:20.554Z,989.76
2019-01-14T04:34:30.239Z,989.71
2019-01-14T04:35:39.943Z,989.66
2019-01-14T04:36:49.638Z,990.05
2019-01-14T04:37:59.073Z,989.8
2019-01-14T04:39:09.014Z,990.27
2019-01-14T04:40:18.949Z,989.83
2019-01-14T04:41:28.902Z,990.2
2019-01-14T04:42:38.349Z,989.91
2019-01-14T04:43:48.300Z,989.81
2019-01-14T04:44:58.244Z,990.05
2019-01-14T04:46:07.726Z,989.99
2019-01-14T04:47:17.669Z,990.19
2019-01-14T04:48:27.436Z,990.08
2019-01-14T04:49:37.130Z,990.23
2019-01-14T04:50:47.073Z,989.85
2019-01-14T04:51:57.035Z,990.21
2019-01-14T04:53:06.484Z,990.34
2019-01-14T04:54:16.425Z,990.65
2019-01-14T04:55:26.361Z,990.45
2019-01-14T04:56:36.312Z,990.41
2019-01-14T04:57:46.240Z,990.51
2019-01-14T04:58:55.673Z,990.61
2019-01-14T05:00:05.369Z,990.4
2019-01-14T05:01:15.319Z,990.55
2019-01-14T05:02:25.257Z,990.43
2019-01-14T05:03:34.441Z,990.38
2019-01-14T05:04:45.240Z,990.63
2019-01-14T05:05:55.188Z,990.67
2019-01-14T05:07:05.172Z,990.56
2019-01-14T05:08:14.875Z,990.34
2019-01-14T05:09:24.602Z,990.75
2019-01-14T05:10:34.498Z,990.54
2019-01-14T05:11:44.450Z,990.66
2019-01-14T05:12:54.137Z,990.56
2019-01-14T05:14:04.074Z,990.59
2019-01-14T05:15:14.019Z,990.62
2019-01-14T05:16:23.998Z,990.72
2019-01-14T05:17:33.682Z,991.01
2019-01-14T05:18:43.377Z,991.15
2019-01-14T05:19:53.067Z,990.78
2019-01-14T05:21:02.759Z,990.6
2019-01-14T05:22:12.464Z,990.64
2019-01-14T05:23:22.395Z,990.69
2019-01-14T05:24:31.836Z,990.86
2019-01-14T05:25:41.515Z,990.74
2019-01-14T05:26:51.450Z,990.96
2019-01-14T05:28:00.644Z,990.65
2019-01-14T05:29:10.579Z,990.84
2019-01-14T05:30:20.519Z,990.76
2019-01-14T05:31:30.452Z,990.85
2019-01-14T05:32:40.396Z,990.93
2019-01-14T05:33:49.843Z,991.06
2019-01-14T05:34:59.766Z,991.05
2019-01-14T05:36:09.722Z,990.7
2019-01-14T05:37:19.423Z,991.28
2019-01-14T05:38:29.121Z,990.9
2019-01-14T05:39:39.067Z,990.74
2019-01-14T05:40:48.995Z,990.89
2019-01-14T05:41:58.689Z,990.96
2019-01-14T05:43:08.623Z,990.93
2019-01-14T05:44:18.325Z,990.81
2019-01-14T05:45:28.313Z,990.65
2019-01-14T05:46:38.256Z,991
2019-01-14T05:47:48.203Z,990.93
2019-01-14T05:48:57.922Z,990.82
2019-01-14T05:50:07.861Z,990.75
2019-01-14T05:51:17.809Z,990.84
2019-01-14T05:52:27.505Z,990.97
2019-01-14T05:53:37.190Z,990.83
2019-01-14T05:54:47.129Z,990.8
2019-01-14T05:55:57.069Z,990.9
2019-01-14T05:57:07.005Z,991.15
2019-01-14T05:58:16.930Z,990.8
2019-01-14T05:59:26.854Z,991.02
2019-01-14T06:00:36.789Z,990.94
2019-01-14T06:01:46.722Z,990.92
2019-01-14T06:02:56.418Z,990.93
2019-01-14T06:04:06.373Z,990.94
2019-01-14T06:05:16.320Z,990.95
2019-01-14T06:06:25.851Z,990.99
2019-01-14T06:07:35.867Z,990.97
2019-01-14T06:08:52.425Z,990.99
2019-01-14T06:10:01.881Z,991.11
2019-01-14T06:11:11.853Z,990.92
2019-01-14T06:12:21.805Z,991.14
2019-01-14T06:13:31.517Z,991.04
2019-01-14T06:14:41.227Z,991.23
2019-01-14T06:15:50.921Z,991.06
2019-01-14T06:17:00.873Z,991.2
2019-01-14T06:18:10.591Z,991.06
2019-01-14T06:19:20.533Z,991.01
2019-01-14T06:20:30.224Z,991.4
2019-01-14T06:21:40.158Z,991.11
2019-01-14T06:22:50.432Z,991.66
2019-01-14T06:23:59.863Z,991.4
2019-01-14T06:25:09.546Z,991.33
2019-01-14T06:26:19.561Z,991.18
2019-01-14T06:27:29.544Z,991.24
2019-01-14T06:28:39.485Z,991.25
2019-01-14T06:29:49.430Z,991.25
2019-01-14T06:30:59.133Z,991.34
2019-01-14T06:32:08.826Z,991.23
2019-01-14T06:33:18.755Z,991.43
2019-01-14T06:34:28.204Z,991.78
2019-01-14T06:35:38.155Z,991.44
2019-01-14T06:36:47.844Z,991.72
2019-01-14T06:37:57.552Z,991.58
2019-01-14T06:39:07.481Z,991.75
2019-01-14T06:40:17.469Z,991.86
2019-01-14T06:41:27.391Z,991.4
2019-01-14T06:42:37.720Z,991.91
2019-01-14T06:43:47.674Z,991.58
2019-01-14T06:44:57.130Z,991.66
2019-01-14T06:46:07.069Z,991.74
2019-01-14T06:47:17.013Z,991.96
2019-01-14T06:48:26.703Z,991.78
2019-01-14T06:49:36.499Z,991.85
2019-01-14T06:50:46.446Z,992.06
2019-01-14T06:51:56.374Z,991.87
2019-01-14T06:53:06.080Z,992.12
2019-01-14T06:54:16.019Z,991.98
2019-01-14T06:55:25.711Z,992.61
2019-01-14T06:56:35.377Z,991.96
2019-01-14T06:57:44.562Z,991.96
2019-01-14T06:58:54.523Z,991.99
2019-01-14T07:00:04.469Z,991.9
2019-01-14T07:01:14.413Z,992.12
2019-01-14T07:02:24.113Z,991.98
2019-01-14T07:03:34.076Z,992.36
2019-01-14T07:04:43.763Z,992.25
2019-01-14T07:05:53.715Z,992.24
2019-01-14T07:07:03.416Z,992.44
2019-01-14T07:08:13.114Z,992.38
2019-01-14T07:09:22.803Z,992.37
2019-01-14T07:10:32.764Z,992.52
2019-01-14T07:11:42.714Z,992.81
2019-01-14T07:12:52.662Z,992.47
2019-01-14T07:14:02.357Z,992.6
2019-01-14T07:15:12.065Z,992.47
2019-01-14T07:16:21.781Z,992.57
2019-01-14T07:17:31.489Z,992.81
2019-01-14T07:18:41.243Z,992.76
2019-01-14T07:19:51.208Z,992.74
2019-01-14T07:21:00.895Z,992.82
2019-01-14T07:22:10.591Z,992.79
2019-01-14T07:23:20.285Z,992.96
2019-01-14T07:24:30.264Z,992.9
2019-01-14T07:25:39.711Z,992.93
2019-01-14T07:26:49.668Z,992.94
2019-01-14T07:27:59.620Z,992.88
2019-01-14T07:29:09.329Z,993.02
2019-01-14T07:30:19.271Z,992.86
2019-01-14T07:31:28.990Z,992.92
2019-01-14T07:32:38.957Z,993.01
2019-01-14T07:33:48.896Z,992.9
2019-01-14T07:34:58.848Z,993.02
2019-01-14T07:36:09.953Z,992.93
2019-01-14T07:37:19.405Z,993.2
2019-01-14T07:38:28.869Z,992.98
2019-01-14T07:39:38.832Z,992.86
2019-01-14T07:40:48.786Z,993.03
2019-01-14T07:41:58.756Z,993.16
2019-01-14T07:43:08.461Z,992.94
2019-01-14T07:44:18.393Z,993.06
2019-01-14T07:45:28.335Z,992.97
2019-01-14T07:46:38.026Z,993.02
2019-01-14T07:47:47.783Z,992.98
2019-01-14T07:48:57.518Z,993
2019-01-14T07:50:06.985Z,993.15
2019-01-14T07:51:16.420Z,993.1
2019-01-14T07:52:26.372Z,993.28
2019-01-14T07:53:36.324Z,993.58
2019-01-14T07:54:46.030Z,993.22
2019-01-14T07:55:55.990Z,993.34
2019-01-14T07:57:05.933Z,993.23
2019-01-14T07:58:15.353Z,993.41
2019-01-14T07:59:25.038Z,993.45
2019-01-14T08:00:34.975Z,993.57
2019-01-14T08:01:44.663Z,993.4
2019-01-14T08:02:54.613Z,993.38
2019-01-14T08:04:04.312Z,993.34
2019-01-14T08:05:14.253Z,993.44
2019-01-14T08:06:23.972Z,993.43
2019-01-14T08:07:33.968Z,993.55
2019-01-14T08:08:43.650Z,993.67
2019-01-14T08:09:53.612Z,993.6
2019-01-14T08:11:03.586Z,993.83
2019-01-14T08:12:13.033Z,993.63
2019-01-14T08:13:22.693Z,993.65
2019-01-14T08:14:32.144Z,993.57
2019-01-14T08:15:43.278Z,993.61
2019-01-14T08:16:52.999Z,993.67
2019-01-14T08:18:02.704Z,993.73
2019-01-14T08:19:12.668Z,993.76
2019-01-14T08:20:24.127Z,993.92
2019-01-14T08:21:33.820Z,993.86
2019-01-14T08:22:43.760Z,993.97
2019-01-14T08:23:53.726Z,993.85
2019-01-14T08:25:03.416Z,993.71
2019-01-14T08:26:13.092Z,993.66
2019-01-14T08:27:23.067Z,993.82
2019-01-14T08:28:32.773Z,993.8
2019-01-14T08:29:42.473Z,993.63
2019-01-14T08:30:52.185Z,993.86
2019-01-14T08:32:01.876Z,993.86
2019-01-14T08:33:11.563Z,993.97
2019-01-14T08:34:21.280Z,994.23
2019-01-14T08:35:31.245Z,994.15
2019-01-14T08:36:41.187Z,994.04
2019-01-14T08:37:51.161Z,994.02
2019-01-14T08:39:01.099Z,993.97
2019-01-14T08:40:10.850Z,994.15
2019-01-14T08:41:20.868Z,993.93
2019-01-14T08:42:30.841Z,993.84
2019-01-14T08:43:40.796Z,993.97
2019-01-14T08:44:50.771Z,993.91
2019-01-14T08:46:00.216Z,993.93
2019-01-14T08:47:10.193Z,994.05
2019-01-14T08:48:20.116Z,994.07
2019-01-14T08:49:31.314Z,994.5
2019-01-14T08:50:41.270Z,994.07
2019-01-14T08:51:51.220Z,993.79
2019-01-14T08:53:00.899Z,994.2
2019-01-14T08:54:10.849Z,994.13
2019-01-14T08:55:20.036Z,994.23
2019-01-14T08:56:30.057Z,994.2
2019-01-14T08:57:39.504Z,994.25
2019-01-14T08:58:55.054Z,994.17
2019-01-14T09:00:05.555Z,994.11
2019-01-14T09:01:15.495Z,994.46
2019-01-14T09:02:25.436Z,994.25
2019-01-14T09:03:35.381Z,994.34
2019-01-14T09:04:45.325Z,994.23
2019-01-14T09:05:55.269Z,994.22
2019-01-14T09:07:04.956Z,994.51
2019-01-14T09:08:14.905Z,994.33
2019-01-14T09:09:31.614Z,994.37
2019-01-14T09:10:41.387Z,994.38
2019-01-14T09:11:51.265Z,994.45
2019-01-14T09:13:00.461Z,994.24
2019-01-14T09:14:10.179Z,994.67
2019-01-14T09:15:20.093Z,994.35
2019-01-14T09:16:29.887Z,994.54
2019-01-14T09:17:40.046Z,994.54
2019-01-14T09:18:49.856Z,994.52
2019-01-14T09:20:00.350Z,994.43
2019-01-14T09:21:10.384Z,994.64
2019-01-14T09:22:20.680Z,994.55
2019-01-14T09:23:30.386Z,994.59
2019-01-14T09:24:40.066Z,994.6
2019-01-14T09:25:53.700Z,994.91
2019-01-14T09:27:03.610Z,994.71
2019-01-14T09:28:13.559Z,994.61
2019-01-14T09:29:23.577Z,994.17
2019-01-14T09:30:33.316Z,994.34
2019-01-14T09:31:43.265Z,994.36
2019-01-14T09:32:52.755Z,994.65
2019-01-14T09:34:02.728Z,994.89
2019-01-14T09:35:12.434Z,994.67
2019-01-14T09:36:22.414Z,994.68
2019-01-14T09:37:32.366Z,994.66
2019-01-14T09:38:42.102Z,994.78
2019-01-14T09:39:52.049Z,994.94
2019-01-14T09:41:02.037Z,994.86
2019-01-14T09:42:12.018Z,994.83
2019-01-14T09:43:21.717Z,994.92
2019-01-14T09:44:31.417Z,994.8
2019-01-14T09:45:41.362Z,994.91
2019-01-14T09:46:51.330Z,994.67
2019-01-14T09:48:01.200Z,994.8
2019-01-14T09:49:11.252Z,994.82
2019-01-14T09:50:21.226Z,994.78
2019-01-14T09:51:30.919Z,994.96
2019-01-14T09:52:41.004Z,994.73
2019-01-14T09:53:50.744Z,994.87
2019-01-14T09:55:05.516Z,995.16
2019-01-14T09:56:15.611Z,994.56
2019-01-14T09:57:25.568Z,994.82
2019-01-14T09:58:35.522Z,994.76
2019-01-14T09:59:45.536Z,994.86
2019-01-14T10:00:55.240Z,994.94
2019-01-14T10:02:05.240Z,994.96
2019-01-14T10:03:15.197Z,995.11
2019-01-14T10:04:25.201Z,994.98
2019-01-14T10:05:34.657Z,994.74
2019-01-14T10:06:44.348Z,994.74
2019-01-14T10:07:53.829Z,994.68
2019-01-14T10:09:03.948Z,994.76
2019-01-14T10:10:13.966Z,994.94
2019-01-14T10:11:23.742Z,994.77
2019-01-14T10:12:33.186Z,994.84
2019-01-14T10:13:43.123Z,994.99
2019-01-14T10:14:53.157Z,994.85
2019-01-14T10:16:02.891Z,994.99
2019-01-14T10:17:12.853Z,995.1
2019-01-14T10:18:22.576Z,995.19
2019-01-14T10:19:32.760Z,995.54
2019-01-14T10:20:42.480Z,994.76
2019-01-14T10:21:52.892Z,995.04
2019-01-14T10:23:02.410Z,994.75
2019-01-14T10:24:12.390Z,994.98
2019-01-14T10:25:22.348Z,995.21
2019-01-14T10:26:32.277Z,994.95
2019-01-14T10:27:41.962Z,995.07
2019-01-14T10:28:51.915Z,995.1
2019-01-14T10:30:01.621Z,995.07
2019-01-14T10:31:11.328Z,995.05
2019-01-14T10:32:24.705Z,994.41
2019-01-14T10:33:34.654Z,994.81
2019-01-14T10:34:44.583Z,994.85
2019-01-14T10:35:54.558Z,994.93
2019-01-14T10:37:04.517Z,994.8
2019-01-14T10:38:14.200Z,994.63
2019-01-14T10:39:23.902Z,994.81
2019-01-14T10:40:33.595Z,994.97
2019-01-14T10:41:43.549Z,994.8
2019-01-14T10:42:53.263Z,994.74
2019-01-14T10:44:03.342Z,994.98
2019-01-14T10:45:13.333Z,994.83
2019-01-14T10:46:23.344Z,994.89
2019-01-14T10:47:33.292Z,994.89
2019-01-14T10:48:42.980Z,994.88
2019-01-14T10:49:52.914Z,994.93
2019-01-14T10:51:02.588Z,994.95
2019-01-14T10:52:12.651Z,995.04
2019-01-14T10:53:22.723Z,994.87
2019-01-14T10:54:32.669Z,994.9
2019-01-14T10:55:42.644Z,994.67
2019-01-14T10:56:52.719Z,994.9
2019-01-14T10:58:02.418Z,994.88
2019-01-14T10:59:11.882Z,994.68
2019-01-14T11:00:21.590Z,994.99
2019-01-14T11:01:31.294Z,994.79
2019-01-14T11:02:40.734Z,994.94
2019-01-14T11:03:55.278Z,994.79
2019-01-14T11:05:05.222Z,994.8
2019-01-14T11:06:15.182Z,994.78
2019-01-14T11:07:24.621Z,994.73
2019-01-14T11:08:34.327Z,994.92
2019-01-14T11:09:44.672Z,994.88
2019-01-14T11:10:54.693Z,994.8
2019-01-14T11:12:04.665Z,994.71
2019-01-14T11:13:14.373Z,994.98
2019-01-14T11:14:24.366Z,994.82
2019-01-14T11:15:34.147Z,994.9
2019-01-14T11:16:44.284Z,995.12
2019-01-14T11:17:54.252Z,994.79
2019-01-14T11:19:04.436Z,994.98
2019-01-14T11:20:14.385Z,995.31
2019-01-14T11:21:24.093Z,995.24
2019-01-14T11:22:34.053Z,995.41
2019-01-14T11:23:44.000Z,995.07
2019-01-14T11:24:53.456Z,995.35
2019-01-14T11:26:03.219Z,995.21
2019-01-14T11:27:12.914Z,995.07
2019-01-14T11:28:22.642Z,995.12
2019-01-14T11:29:32.591Z,995.01
2019-01-14T11:30:42.288Z,995.13
2019-01-14T11:31:52.238Z,995.09
2019-01-14T11:33:01.986Z,995.13
2019-01-14T11:34:11.939Z,995.15
2019-01-14T11:35:21.670Z,995.29
2019-01-14T11:36:31.415Z,995.14
2019-01-14T11:37:40.879Z,995.46
2019-01-14T11:38:50.899Z,995.28
2019-01-14T11:40:07.850Z,995.41
2019-01-14T11:41:17.797Z,995.4
2019-01-14T11:42:27.765Z,995.2
2019-01-14T11:43:37.726Z,995.32
2019-01-14T11:44:47.437Z,995.63
2019-01-14T11:45:57.417Z,995.05
2019-01-14T11:47:07.373Z,995.17
2019-01-14T11:48:17.339Z,995.31
2019-01-14T11:49:27.072Z,995.2
2019-01-14T11:50:36.779Z,995.15
2019-01-14T11:51:46.725Z,995.22
2019-01-14T11:52:56.837Z,995.37
2019-01-14T11:54:06.531Z,995.19
2019-01-14T11:55:16.265Z,995.32
2019-01-14T11:56:26.215Z,995.36
2019-01-14T11:57:36.205Z,995.45
2019-01-14T11:58:45.680Z,995.56
2019-01-14T11:59:55.621Z,995.53
2019-01-14T12:01:05.342Z,995.44
2019-01-14T12:02:15.276Z,995.52
2019-01-14T12:03:25.224Z,995.45
2019-01-14T12:04:35.185Z,995.37
2019-01-14T12:05:44.888Z,995.83
2019-01-14T12:06:54.321Z,995.68
2019-01-14T12:08:04.275Z,995.49
2019-01-14T12:09:14.230Z,995.66
2019-01-14T12:10:24.178Z,995.86
2019-01-14T12:11:33.893Z,995.51
2019-01-14T12:12:43.597Z,995.76
2019-01-14T12:13:53.083Z,995.65
2019-01-14T12:15:03.057Z,995.58
2019-01-14T12:16:12.760Z,995.52
2019-01-14T12:17:22.458Z,995.72
2019-01-14T12:18:32.379Z,995.78
2019-01-14T12:19:42.346Z,995.72
2019-01-14T12:20:52.345Z,995.44
2019-01-14T12:22:02.037Z,995.99
2019-01-14T12:23:11.499Z,995.58
2019-01-14T12:24:21.191Z,995.61
2019-01-14T12:25:30.869Z,995.8
2019-01-14T12:26:40.549Z,995.65
2019-01-14T12:27:50.528Z,995.57
2019-01-14T12:29:00.478Z,995.62
2019-01-14T12:30:10.433Z,995.69
2019-01-14T12:31:20.173Z,995.63
2019-01-14T12:32:30.150Z,995.56
2019-01-14T12:33:39.610Z,995.61
2019-01-14T12:34:49.309Z,995.58
2019-01-14T12:35:59.249Z,995.56
2019-01-14T12:37:09.222Z,995.46
2019-01-14T12:38:19.171Z,995.48
2019-01-14T12:39:29.118Z,995.55
2019-01-14T12:40:39.063Z,995.64
2019-01-14T12:41:51.106Z,995.86
2019-01-14T12:43:00.951Z,995.66
2019-01-14T12:44:10.399Z,995.89
2019-01-14T12:45:20.368Z,995.83
2019-01-14T12:46:30.313Z,995.96
2019-01-14T12:47:40.257Z,995.57
2019-01-14T12:48:49.690Z,996.17
2019-01-14T12:49:59.652Z,996.06
2019-01-14T12:51:09.375Z,996.04
2019-01-14T12:52:19.335Z,995.76
2019-01-14T12:53:30.515Z,995.82
2019-01-14T12:54:40.554Z,995.82
2019-01-14T12:55:50.511Z,995.94
2019-01-14T12:57:00.217Z,995.89
2019-01-14T12:58:09.917Z,995.86
2019-01-14T12:59:19.109Z,995.98
2019-01-14T13:00:28.806Z,995.8
2019-01-14T13:01:38.783Z,995.96
2019-01-14T13:02:48.517Z,995.88
2019-01-14T13:04:03.692Z,996.17
2019-01-14T13:05:13.377Z,996.08
2019-01-14T13:06:23.082Z,995.99
2019-01-14T13:07:33.043Z,996.25
2019-01-14T13:08:43.013Z,996.04
2019-01-14T13:09:52.769Z,996.08
2019-01-14T13:11:02.715Z,995.99
2019-01-14T13:12:12.674Z,995.9
2019-01-14T13:13:22.614Z,996.18
2019-01-14T13:14:32.300Z,996.13
2019-01-14T13:15:42.480Z,996.18
2019-01-14T13:16:52.495Z,996.48
2019-01-14T13:18:05.345Z,996.32
2019-01-14T13:19:15.515Z,996.36
2019-01-14T13:20:25.205Z,996.13
2019-01-14T13:21:35.169Z,996.08
2019-01-14T13:22:44.929Z,996.51
2019-01-14T13:23:54.884Z,996.56
2019-01-14T13:25:04.823Z,996.49
2019-01-14T13:26:14.515Z,996.61
2019-01-14T13:27:24.195Z,996.51
2019-01-14T13:28:33.907Z,996.74
2019-01-14T13:29:43.613Z,996.82
2019-01-14T13:30:53.318Z,996.67
2019-01-14T13:32:03.051Z,996.79
2019-01-14T13:33:13.009Z,996.82
2019-01-14T13:34:22.931Z,996.7
2019-01-14T13:35:32.397Z,996.92
2019-01-14T13:36:42.124Z,996.97
2019-01-14T13:37:52.079Z,997.1
2019-01-14T13:39:01.781Z,997
2019-01-14T13:40:11.504Z,997.09
2019-01-14T13:41:21.199Z,997.05
2019-01-14T13:42:30.899Z,997.01
2019-01-14T13:43:40.345Z,996.8
2019-01-14T13:44:50.039Z,996.96
2019-01-14T13:45:59.987Z,996.91
2019-01-14T13:47:09.939Z,996.96
2019-01-14T13:48:19.925Z,997.11
2019-01-14T13:49:29.875Z,997.11
2019-01-14T13:50:39.878Z,997.1
2019-01-14T13:51:49.833Z,997.15
2019-01-14T13:52:59.779Z,997.15
2019-01-14T13:54:09.724Z,997.23
2019-01-14T13:55:19.427Z,997.28
2019-01-14T13:56:28.625Z,997.31
2019-01-14T13:57:38.550Z,997.18
2019-01-14T13:58:48.000Z,997.31
2019-01-14T13:59:57.735Z,997.35
2019-01-14T14:01:07.568Z,997.39
2019-01-14T14:02:17.526Z,997.26
2019-01-14T14:03:27.473Z,997.41
2019-01-14T14:04:37.410Z,997.35
2019-01-14T14:05:47.353Z,997.46
2019-01-14T14:06:57.305Z,997.42
2019-01-14T14:08:07.005Z,997.49
2019-01-14T14:09:16.939Z,997.46
2019-01-14T14:10:26.894Z,997.44
2019-01-14T14:11:36.874Z,997.59
2019-01-14T14:12:46.815Z,997.61
2019-01-14T14:13:56.505Z,997.66
2019-01-14T14:15:06.460Z,997.7
2019-01-14T14:16:16.400Z,997.69
2019-01-14T14:17:26.090Z,997.62
2019-01-14T14:18:36.045Z,997.73
2019-01-14T14:19:45.991Z,997.42
2019-01-14T14:20:55.955Z,997.77
2019-01-14T14:22:11.622Z,997.91
2019-01-14T14:23:21.547Z,997.79
2019-01-14T14:24:31.258Z,997.76
2019-01-14T14:25:40.721Z,998.48
2019-01-14T14:26:50.695Z,997.98
2019-01-14T14:28:00.665Z,998.02
2019-01-14T14:29:10.395Z,998.1
2019-01-14T14:30:20.337Z,998.09
2019-01-14T14:31:30.040Z,998.09
2019-01-14T14:32:39.499Z,998.03
2019-01-14T14:33:49.200Z,998.17
2019-01-14T14:34:58.881Z,998.27
2019-01-14T14:36:08.826Z,998.27